createdAt,value
2017-11-29T07:59:39.222Z,81.56
2017-11-29T08:00:19.854Z,81.56
2017-11-29T08:01:00.393Z,81.37
2017-11-29T08:01:40.944Z,81.47
2017-11-29T08:02:21.508Z,81.85
2017-11-29T08:03:02.074Z,82.32
2017-11-29T08:03:42.682Z,82.23
2017-11-29T08:04:23.285Z,82.13
2017-11-29T08:05:03.870Z,81.75
2017-11-29T08:05:44.432Z,81.37
2017-11-29T08:06:24.999Z,81.47
2017-11-29T08:07:05.557Z,80.99
2017-11-29T08:07:46.126Z,80.9
2017-11-29T08:08:26.734Z,81.37
2017-11-29T08:09:07.311Z,81.18
2017-11-29T08:09:47.977Z,80.8
2017-11-29T08:10:28.549Z,81.09
2017-11-29T08:11:09.113Z,80.8
2017-11-29T08:11:49.706Z,81.18
2017-11-29T08:12:30.301Z,81.18
2017-11-29T08:13:10.879Z,81.52
2017-11-29T08:13:51.505Z,81.47
2017-11-29T08:14:32.069Z,81.71
2017-11-29T08:15:12.641Z,81.56
2017-11-29T08:15:53.290Z,81.37
2017-11-29T08:16:33.814Z,81.66
2017-11-29T08:17:14.390Z,81.37
2017-11-29T08:17:54.967Z,81.37
2017-11-29T08:18:35.748Z,81.47
2017-11-29T08:19:16.461Z,81.66
2017-11-29T08:19:57.023Z,81.56
2017-11-29T08:20:37.583Z,81.56
2017-11-29T08:21:18.180Z,81.47
2017-11-29T08:21:58.758Z,81.47
2017-11-29T08:22:39.348Z,81.37
2017-11-29T08:23:19.900Z,80.99
2017-11-29T08:24:00.476Z,80.71
2017-11-29T08:24:41.036Z,80.9
2017-11-29T08:25:21.644Z,80.99
2017-11-29T08:26:02.204Z,81.09
2017-11-29T08:26:42.774Z,81.18
2017-11-29T08:27:23.346Z,80.9
2017-11-29T08:28:03.920Z,81.62
2017-11-29T08:28:44.499Z,81.71
2017-11-29T08:29:25.087Z,81.75
2017-11-29T08:30:05.672Z,81.47
2017-11-29T08:30:46.255Z,81.47
2017-11-29T08:31:26.857Z,81.66
2017-11-29T08:32:07.461Z,81.47
2017-11-29T08:32:48.043Z,81.09
2017-11-29T08:33:28.613Z,81.18
2017-11-29T08:34:09.208Z,81.09
2017-11-29T08:34:49.778Z,81.47
2017-11-29T08:35:30.384Z,81.47
2017-11-29T08:36:10.972Z,81.27
2017-11-29T08:36:51.556Z,80.99
2017-11-29T08:37:32.139Z,81.09
2017-11-29T08:38:12.713Z,80.8
2017-11-29T08:38:53.270Z,80.18
2017-11-29T08:39:33.863Z,79.9
2017-11-29T08:40:14.457Z,78.56
2017-11-29T08:40:55.032Z,77.81
2017-11-29T08:41:35.602Z,77.05
2017-11-29T08:42:16.223Z,76.86
2017-11-29T08:42:56.782Z,76.8
2017-11-29T08:43:37.352Z,76.9
2017-11-29T08:44:17.965Z,76.42
2017-11-29T08:44:58.530Z,76.32
2017-11-29T08:45:39.083Z,75.99
2017-11-29T08:46:19.652Z,75.04
2017-11-29T08:47:00.227Z,74.27
2017-11-29T08:47:40.808Z,73.71
2017-11-29T08:48:21.394Z,73.23
2017-11-29T08:49:02.034Z,72.41
2017-11-29T08:49:42.655Z,71.94
2017-11-29T08:50:23.258Z,71.08
2017-11-29T08:51:03.940Z,70.89
2017-11-29T08:51:44.515Z,70.04
2017-11-29T08:52:25.105Z,69.37
2017-11-29T08:53:05.654Z,68.52
2017-11-29T08:53:46.383Z,68.71
2017-11-29T08:54:26.983Z,68.46
2017-11-29T08:55:07.593Z,68.65
2017-11-29T08:55:48.165Z,68.84
2017-11-29T08:56:28.725Z,68.93
2017-11-29T08:57:09.301Z,68.36
2017-11-29T08:57:49.861Z,68.55
2017-11-29T08:58:30.438Z,68.07
2017-11-29T08:59:11.014Z,67.32
2017-11-29T08:59:51.582Z,66.74
2017-11-29T09:00:32.170Z,66.3
2017-11-29T09:01:12.730Z,66.68
2017-11-29T09:01:53.292Z,66.78
2017-11-29T09:02:33.875Z,66.68
2017-11-29T09:03:14.457Z,66.3
2017-11-29T09:03:55.092Z,65.64
2017-11-29T09:04:35.682Z,65.58
2017-11-29T09:05:16.236Z,64.72
2017-11-29T09:05:56.830Z,64.34
2017-11-29T09:06:37.397Z,63.96
2017-11-29T09:07:17.964Z,64.05
2017-11-29T09:07:58.536Z,63.96
2017-11-29T09:08:39.114Z,63.96
2017-11-29T09:09:19.735Z,63.76
2017-11-29T09:10:00.311Z,64.05
2017-11-29T09:10:40.900Z,64.05
2017-11-29T09:11:21.491Z,64.05
2017-11-29T09:12:02.101Z,63.96
2017-11-29T09:12:42.674Z,63.67
2017-11-29T09:13:23.256Z,64.05
2017-11-29T09:14:03.867Z,63.92
2017-11-29T09:14:44.423Z,64.05
2017-11-29T09:15:25.012Z,64.4
2017-11-29T09:16:05.597Z,64.11
2017-11-29T09:16:46.174Z,64.05
2017-11-29T09:17:26.773Z,63.64
2017-11-29T09:18:07.327Z,63.39
2017-11-29T09:18:47.910Z,64.05
2017-11-29T09:19:28.486Z,63.76
2017-11-29T09:20:09.061Z,64.11
2017-11-29T09:20:49.631Z,64.62
2017-11-29T09:21:30.202Z,64.53
2017-11-29T09:22:10.777Z,64.24
2017-11-29T09:22:51.342Z,64.53
2017-11-29T09:23:31.961Z,64.43
2017-11-29T09:24:12.516Z,64.24
2017-11-29T09:24:53.095Z,63.86
2017-11-29T09:25:33.700Z,63.76
2017-11-29T09:26:14.271Z,63.39
2017-11-29T09:26:54.859Z,63.04
2017-11-29T09:27:35.419Z,62.46
2017-11-29T09:28:15.988Z,62.65
2017-11-29T09:28:56.586Z,62.46
2017-11-29T09:29:37.155Z,62.18
2017-11-29T09:30:17.791Z,61.9
2017-11-29T09:30:58.372Z,61.42
2017-11-29T09:31:38.961Z,61.51
2017-11-29T09:32:19.543Z,61.8
2017-11-29T09:33:00.164Z,60.75
2017-11-29T09:33:40.719Z,60.66
2017-11-29T09:34:21.313Z,61.13
2017-11-29T09:35:01.900Z,61
2017-11-29T09:35:42.499Z,60.63
2017-11-29T09:36:23.068Z,61.48
2017-11-29T09:37:03.664Z,61.77
2017-11-29T09:37:44.283Z,62.15
2017-11-29T09:38:24.856Z,62.05
2017-11-29T09:39:05.436Z,62.72
2017-11-29T09:39:46.041Z,62.62
2017-11-29T09:40:26.622Z,62.34
2017-11-29T09:41:07.214Z,62.81
2017-11-29T09:41:47.788Z,63.01
2017-11-29T09:42:28.353Z,62.81
2017-11-29T09:43:08.930Z,63.01
2017-11-29T09:43:49.490Z,62.15
2017-11-29T09:44:30.096Z,62.62
2017-11-29T09:45:10.673Z,62.4
2017-11-29T09:45:51.254Z,62.59
2017-11-29T09:46:31.819Z,62.78
2017-11-29T09:47:12.398Z,62.97
2017-11-29T09:47:52.977Z,64.02
2017-11-29T09:48:33.552Z,63.64
2017-11-29T09:49:14.112Z,64.02
2017-11-29T09:49:54.682Z,63.89
2017-11-29T09:50:35.277Z,64.4
2017-11-29T09:51:15.868Z,64.37
2017-11-29T09:51:56.434Z,64.56
2017-11-29T09:52:37.050Z,64.84
2017-11-29T09:53:17.618Z,65.03
2017-11-29T09:53:58.203Z,65.51
2017-11-29T09:54:38.815Z,65.89
2017-11-29T09:55:19.390Z,66.17
2017-11-29T09:56:00.054Z,66.14
2017-11-29T09:56:40.653Z,66.14
2017-11-29T09:57:21.272Z,66.42
2017-11-29T09:58:01.886Z,67.09
2017-11-29T09:58:42.458Z,67.66
2017-11-29T09:59:23.037Z,67.47
2017-11-29T10:00:03.635Z,67.94
2017-11-29T10:00:44.207Z,67.66
2017-11-29T10:01:24.793Z,67.76
2017-11-29T10:02:05.366Z,68.52
2017-11-29T10:02:45.932Z,68.42
2017-11-29T10:03:26.509Z,69.18
2017-11-29T10:04:07.101Z,69.46
2017-11-29T10:04:47.704Z,69.18
2017-11-29T10:05:28.292Z,69.18
2017-11-29T10:06:08.901Z,69.34
2017-11-29T10:06:49.460Z,69.71
2017-11-29T10:07:30.041Z,69.43
2017-11-29T10:08:10.617Z,69.43
2017-11-29T10:08:51.193Z,69.34
2017-11-29T10:09:31.766Z,69.71
2017-11-29T10:10:12.348Z,70.19
2017-11-29T10:10:52.925Z,69.91
2017-11-29T10:11:33.499Z,70.48
2017-11-29T10:12:14.120Z,70.67
2017-11-29T10:12:54.700Z,71.14
2017-11-29T10:13:35.270Z,71.33
2017-11-29T10:14:15.849Z,71.23
2017-11-29T10:14:56.430Z,71.52
2017-11-29T10:15:37.014Z,71.23
2017-11-29T10:16:17.593Z,71.43
2017-11-29T10:16:58.264Z,71.9
2017-11-29T10:17:38.789Z,71.71
2017-11-29T10:18:19.384Z,71.43
2017-11-29T10:18:59.965Z,71.86
2017-11-29T10:19:40.553Z,71.81
2017-11-29T10:20:21.152Z,72.25
2017-11-29T10:21:01.717Z,72.44
2017-11-29T10:21:42.307Z,72.15
2017-11-29T10:22:22.904Z,72.34
2017-11-29T10:23:03.494Z,72.25
2017-11-29T10:23:44.054Z,72.25
2017-11-29T10:24:24.633Z,72.25
2017-11-29T10:25:05.206Z,72.06
2017-11-29T10:25:45.771Z,73.1
2017-11-29T10:26:26.346Z,72.81
2017-11-29T10:27:06.933Z,72.72
2017-11-29T10:27:47.531Z,73
2017-11-29T10:28:28.114Z,73.1
2017-11-29T10:29:08.699Z,73.29
2017-11-29T10:29:49.280Z,73.57
2017-11-29T10:30:29.860Z,73.57
2017-11-29T10:31:10.485Z,73.67
2017-11-29T10:31:51.076Z,73.86
2017-11-29T10:32:31.661Z,73.96
2017-11-29T10:33:12.251Z,73.67
2017-11-29T10:33:52.808Z,73.86
2017-11-29T10:34:33.396Z,73.57
2017-11-29T10:35:13.963Z,74.05
2017-11-29T10:35:54.541Z,74.52
2017-11-29T10:36:35.140Z,74.43
2017-11-29T10:37:15.710Z,75.09
2017-11-29T10:37:56.302Z,75.09
2017-11-29T10:38:36.953Z,75
2017-11-29T10:39:17.513Z,75.09
2017-11-29T10:39:58.097Z,75
2017-11-29T10:40:38.680Z,75.85
2017-11-29T10:41:19.287Z,75.53
2017-11-29T10:41:59.854Z,75.85
2017-11-29T10:42:40.432Z,75.34
2017-11-29T10:43:21.016Z,75.47
2017-11-29T10:44:01.582Z,75.38
2017-11-29T10:44:42.153Z,75.47
2017-11-29T10:45:22.723Z,75.67
2017-11-29T10:46:03.347Z,75.57
2017-11-29T10:46:43.920Z,75.95
2017-11-29T10:47:24.512Z,75.47
2017-11-29T10:48:05.079Z,75.57
2017-11-29T10:48:45.644Z,75.38
2017-11-29T10:49:26.228Z,75.47
2017-11-29T10:50:06.794Z,75.09
2017-11-29T10:50:47.376Z,74.9
2017-11-29T10:51:27.947Z,75.28
2017-11-29T10:52:08.534Z,75.24
2017-11-29T10:52:49.111Z,75.34
2017-11-29T10:53:29.682Z,75.67
2017-11-29T10:54:10.248Z,75.76
2017-11-29T10:54:50.807Z,75.62
2017-11-29T10:55:31.418Z,75.57
2017-11-29T10:56:12.007Z,75.67
2017-11-29T10:56:52.566Z,75.72
2017-11-29T10:57:33.125Z,76.04
2017-11-29T10:58:13.709Z,75.95
2017-11-29T10:58:54.271Z,76.52
2017-11-29T10:59:34.857Z,76.42
2017-11-29T11:00:15.428Z,75.95
2017-11-29T11:00:56.068Z,76.61
2017-11-29T11:01:36.624Z,76.14
2017-11-29T11:02:17.219Z,75.95
2017-11-29T11:02:57.820Z,75.85
2017-11-29T11:03:38.399Z,75.85
2017-11-29T11:04:18.972Z,75.67
2017-11-29T11:04:59.539Z,75.76
2017-11-29T11:05:40.112Z,75.67
2017-11-29T11:06:20.699Z,75.67
2017-11-29T11:07:01.259Z,75.85
2017-11-29T11:07:41.840Z,75.47
2017-11-29T11:08:22.407Z,75.47
2017-11-29T11:09:02.991Z,75.38
2017-11-29T11:09:43.562Z,75.85
2017-11-29T11:10:24.107Z,75.76
2017-11-29T11:11:04.672Z,75.85
2017-11-29T11:11:45.263Z,75.57
2017-11-29T11:12:25.819Z,75.47
2017-11-29T11:13:06.470Z,75.28
2017-11-29T11:13:47.020Z,74.71
2017-11-29T11:14:27.584Z,75.28
2017-11-29T11:15:08.193Z,75.57
2017-11-29T11:15:48.800Z,75.57
2017-11-29T11:16:29.414Z,75.67
2017-11-29T11:17:09.995Z,75.57
2017-11-29T11:17:50.558Z,75.38
2017-11-29T11:18:31.148Z,75.38
2017-11-29T11:19:11.722Z,75.47
2017-11-29T11:19:52.305Z,75.85
2017-11-29T11:20:32.905Z,75.47
2017-11-29T11:21:13.535Z,75
2017-11-29T11:21:54.086Z,75.76
2017-11-29T11:22:34.665Z,75.67
2017-11-29T11:23:15.228Z,75.85
2017-11-29T11:23:55.852Z,75
2017-11-29T11:24:36.422Z,74.9
2017-11-29T11:25:16.984Z,75
2017-11-29T11:25:57.582Z,75
2017-11-29T11:26:38.182Z,75
2017-11-29T11:27:18.780Z,75
2017-11-29T11:27:59.365Z,75.28
2017-11-29T11:28:39.955Z,75.38
2017-11-29T11:29:20.540Z,75.76
2017-11-29T11:30:01.112Z,75.67
2017-11-29T11:30:41.687Z,75.76
2017-11-29T11:31:22.269Z,75.57
2017-11-29T11:32:02.897Z,75.57
2017-11-29T11:32:43.457Z,75.38
2017-11-29T11:33:24.026Z,75.67
2017-11-29T11:34:04.582Z,75.76
2017-11-29T11:34:45.144Z,75.76
2017-11-29T11:35:25.710Z,75.85
2017-11-29T11:36:06.308Z,75.38
2017-11-29T11:36:46.885Z,75.57
2017-11-29T11:37:27.455Z,75.57
2017-11-29T11:38:08.061Z,75.38
2017-11-29T11:38:48.676Z,75.38
2017-11-29T11:39:29.262Z,75.47
2017-11-29T11:40:09.854Z,75.85
2017-11-29T11:40:50.441Z,75.76
2017-11-29T11:41:31.013Z,75.76
2017-11-29T11:42:11.601Z,75.47
2017-11-29T11:42:52.188Z,75.76
2017-11-29T11:43:32.748Z,75.76
2017-11-29T11:44:13.351Z,75.85
2017-11-29T11:44:53.928Z,75.28
2017-11-29T11:45:34.535Z,75.47
2017-11-29T11:46:15.098Z,75
2017-11-29T11:46:55.683Z,75.09
2017-11-29T11:47:36.284Z,74.71
2017-11-29T11:48:16.887Z,74.52
2017-11-29T11:48:57.476Z,75
2017-11-29T11:49:38.094Z,75
2017-11-29T11:50:18.695Z,74.9
2017-11-29T11:50:59.277Z,75
2017-11-29T11:51:39.852Z,75
2017-11-29T11:52:20.449Z,74.71
2017-11-29T11:53:01.058Z,74.71
2017-11-29T11:53:41.686Z,74.62
2017-11-29T11:54:22.248Z,74.24
2017-11-29T11:55:02.856Z,74.62
2017-11-29T11:55:43.440Z,74.52
2017-11-29T11:56:24.061Z,74.71
2017-11-29T11:57:04.648Z,74.62
2017-11-29T11:57:45.885Z,74.71
2017-11-29T11:58:26.778Z,75
2017-11-29T11:59:07.379Z,75.38
2017-11-29T11:59:47.976Z,75.09
2017-11-29T12:00:28.537Z,75.38
2017-11-29T12:01:09.120Z,75.47
2017-11-29T12:01:49.723Z,74.9
2017-11-29T12:02:30.309Z,74.9
2017-11-29T12:03:10.874Z,74.52
2017-11-29T12:03:51.443Z,74.52
2017-11-29T12:04:32.023Z,74.62
2017-11-29T12:05:12.698Z,74.05
2017-11-29T12:05:53.284Z,74.24
2017-11-29T12:06:33.881Z,74.24
2017-11-29T12:07:14.470Z,74.24
2017-11-29T12:07:55.049Z,74.05
2017-11-29T12:08:35.618Z,73.96
2017-11-29T12:09:16.231Z,74.52
2017-11-29T12:09:56.801Z,74.33
2017-11-29T12:10:37.384Z,74.52
2017-11-29T12:11:17.940Z,74.33
2017-11-29T12:11:58.510Z,74.62
2017-11-29T12:12:39.513Z,74.33
2017-11-29T12:13:20.163Z,74.43
2017-11-29T12:14:00.849Z,74.24
2017-11-29T12:14:41.420Z,74.71
2017-11-29T12:15:22.007Z,74.52
2017-11-29T12:16:02.575Z,74.52
2017-11-29T12:16:44.045Z,74.71
2017-11-29T12:17:24.948Z,74.52
2017-11-29T12:18:05.558Z,74.15
2017-11-29T12:18:46.162Z,74.33
2017-11-29T12:19:26.752Z,74.62
2017-11-29T12:20:07.337Z,74.33
2017-11-29T12:20:47.899Z,74.62
2017-11-29T12:21:28.487Z,74.52
2017-11-29T12:22:09.045Z,74.24
2017-11-29T12:22:49.611Z,73.57
2017-11-29T12:23:30.172Z,74.15
2017-11-29T12:24:10.755Z,73.76
2017-11-29T12:24:51.364Z,74.05
2017-11-29T12:25:31.994Z,74.33
2017-11-29T12:26:12.706Z,74.24
2017-11-29T12:26:53.323Z,74.24
2017-11-29T12:27:33.896Z,74.05
2017-11-29T12:28:14.511Z,74.05
2017-11-29T12:28:55.078Z,74.52
2017-11-29T12:29:35.909Z,74.33
2017-11-29T12:30:16.494Z,74.24
2017-11-29T12:30:57.085Z,73.76
2017-11-29T12:31:37.666Z,74.05
2017-11-29T12:32:18.247Z,73.86
2017-11-29T12:32:58.839Z,74.15
2017-11-29T12:33:39.411Z,73.96
2017-11-29T12:34:20.032Z,74.05
2017-11-29T12:35:00.661Z,74.33
2017-11-29T12:35:41.250Z,74.33
2017-11-29T12:36:21.860Z,74.05
2017-11-29T12:37:02.437Z,73.86
2017-11-29T12:37:43.013Z,73.76
2017-11-29T12:38:23.593Z,73.67
2017-11-29T12:39:04.165Z,73.67
2017-11-29T12:39:44.738Z,73.57
2017-11-29T12:40:25.299Z,73.57
2017-11-29T12:41:05.874Z,73.86
2017-11-29T12:41:46.471Z,73.76
2017-11-29T12:42:27.046Z,74.05
2017-11-29T12:43:07.618Z,73.76
2017-11-29T12:43:48.216Z,73.86
2017-11-29T12:44:28.781Z,73.76
2017-11-29T12:45:09.355Z,74.05
2017-11-29T12:45:49.925Z,73.86
2017-11-29T12:46:30.489Z,73.86
2017-11-29T12:47:11.090Z,73.57
2017-11-29T12:47:51.660Z,74.24
2017-11-29T12:48:32.243Z,73.76
2017-11-29T12:49:12.833Z,74.05
2017-11-29T12:49:53.423Z,74.05
2017-11-29T12:50:34.001Z,74.33
2017-11-29T12:51:14.566Z,74.33
2017-11-29T12:51:55.140Z,73.96
2017-11-29T12:52:35.756Z,74.05
2017-11-29T12:53:16.338Z,74.33
2017-11-29T12:53:56.917Z,74.15
2017-11-29T12:54:37.524Z,74.24
2017-11-29T12:55:18.096Z,74.05
2017-11-29T12:55:58.661Z,74.71
2017-11-29T12:56:39.240Z,74.52
2017-11-29T12:57:19.801Z,74.71
2017-11-29T12:58:00.426Z,74.33
2017-11-29T12:58:41.045Z,74.62
2017-11-29T12:59:21.620Z,75.19
2017-11-29T13:00:02.230Z,74.62
2017-11-29T13:00:42.809Z,74.9
2017-11-29T13:01:23.408Z,75.09
2017-11-29T13:02:03.994Z,74.43
2017-11-29T13:02:44.574Z,74.52
2017-11-29T13:03:25.247Z,74.52
2017-11-29T13:04:05.891Z,74.52
2017-11-29T13:04:46.453Z,74.71
2017-11-29T13:05:27.042Z,74.52
2017-11-29T13:06:07.627Z,75
2017-11-29T13:06:48.215Z,74.9
2017-11-29T13:07:28.786Z,74.71
2017-11-29T13:08:09.373Z,75.09
2017-11-29T13:08:49.952Z,75.28
2017-11-29T13:09:30.557Z,75.38
2017-11-29T13:10:11.145Z,75.09
2017-11-29T13:10:51.714Z,74.81
2017-11-29T13:11:32.362Z,74.9
2017-11-29T13:12:12.925Z,75.09
2017-11-29T13:12:53.581Z,74.52
2017-11-29T13:13:34.152Z,74.52
2017-11-29T13:14:15.256Z,74.62
2017-11-29T13:14:55.852Z,74.62
2017-11-29T13:15:36.430Z,74.52
2017-11-29T13:16:17.047Z,74.33
2017-11-29T13:16:57.636Z,74.52
2017-11-29T13:17:38.294Z,74.52
2017-11-29T13:18:18.793Z,74.62
2017-11-29T13:18:59.371Z,74.24
2017-11-29T13:19:40.536Z,74.52
2017-11-29T13:20:21.530Z,74.62
2017-11-29T13:21:02.097Z,74.43
2017-11-29T13:21:42.672Z,74.43
2017-11-29T13:22:23.252Z,74.62
2017-11-29T13:23:03.863Z,74.52
2017-11-29T13:23:44.421Z,74.62
2017-11-29T13:24:25.170Z,74.33
2017-11-29T13:25:05.799Z,74.43
2017-11-29T13:25:46.362Z,74.43
2017-11-29T13:26:26.931Z,74.62
2017-11-29T13:27:07.501Z,74.52
2017-11-29T13:27:48.126Z,74.9
2017-11-29T13:28:28.710Z,75.09
2017-11-29T13:29:09.253Z,74.52
2017-11-29T13:29:49.820Z,74.33
2017-11-29T13:30:30.383Z,74.52
2017-11-29T13:31:11.116Z,74.62
2017-11-29T13:31:51.706Z,74.52
2017-11-29T13:32:32.306Z,74.71
2017-11-29T13:33:12.866Z,74.37
2017-11-29T13:33:53.456Z,74.62
2017-11-29T13:34:34.137Z,74.75
2017-11-29T13:35:14.695Z,74.66
2017-11-29T13:35:55.265Z,74.52
2017-11-29T13:36:35.851Z,74.75
2017-11-29T13:37:16.422Z,74.47
2017-11-29T13:37:56.992Z,74.56
2017-11-29T13:38:37.783Z,74.47
2017-11-29T13:39:18.359Z,74.47
2017-11-29T13:39:58.927Z,74.66
2017-11-29T13:40:39.483Z,74.08
2017-11-29T13:41:20.065Z,74.08
2017-11-29T13:42:00.664Z,74.56
2017-11-29T13:42:41.237Z,74.27
2017-11-29T13:43:21.828Z,74.05
2017-11-29T13:44:02.405Z,73.9
2017-11-29T13:44:42.990Z,73.57
2017-11-29T13:45:23.556Z,74.05
2017-11-29T13:46:04.127Z,74.33
2017-11-29T13:46:44.689Z,74.52
2017-11-29T13:47:25.276Z,74.52
2017-11-29T13:48:05.875Z,74.75
2017-11-29T13:48:46.462Z,74.43
2017-11-29T13:49:27.058Z,74.43
2017-11-29T13:50:07.643Z,74.71
2017-11-29T13:50:48.217Z,74.62
2017-11-29T13:51:28.772Z,74.71
2017-11-29T13:52:09.335Z,74.9
2017-11-29T13:52:49.925Z,75.09
2017-11-29T13:53:30.499Z,74.9
2017-11-29T13:54:11.095Z,75.38
2017-11-29T13:54:51.634Z,75.09
2017-11-29T13:55:32.414Z,75
2017-11-29T13:56:12.987Z,75
2017-11-29T13:56:53.553Z,75.28
2017-11-29T13:57:34.139Z,74.9
2017-11-29T13:58:14.682Z,75
2017-11-29T13:58:55.264Z,74.9
2017-11-29T13:59:35.831Z,74.9
2017-11-29T14:00:16.407Z,75.09
2017-11-29T14:00:56.974Z,75.09
2017-11-29T14:01:37.571Z,75.09
2017-11-29T14:02:18.157Z,75
2017-11-29T14:02:58.768Z,75.09
2017-11-29T14:03:39.367Z,75.38
2017-11-29T14:04:19.927Z,75.57
2017-11-29T14:05:00.485Z,75.76
2017-11-29T14:05:41.078Z,76.14
2017-11-29T14:06:21.660Z,75.76
2017-11-29T14:07:02.215Z,75.76
2017-11-29T14:07:42.807Z,76.23
2017-11-29T14:08:23.372Z,76.04
2017-11-29T14:09:03.942Z,76.14
2017-11-29T14:09:44.503Z,76.23
2017-11-29T14:10:25.145Z,76.04
2017-11-29T14:11:05.684Z,76.04
2017-11-29T14:11:46.251Z,76.14
2017-11-29T14:12:26.837Z,76.14
2017-11-29T14:13:07.395Z,76.52
2017-11-29T14:13:47.957Z,76.61
2017-11-29T14:14:28.542Z,76.14
2017-11-29T14:15:09.110Z,76.23
2017-11-29T14:15:49.668Z,76.23
2017-11-29T14:16:30.268Z,76.14
2017-11-29T14:17:10.845Z,76.32
2017-11-29T14:17:51.399Z,76.23
2017-11-29T14:18:31.971Z,76.14
2017-11-29T14:19:12.546Z,76.42
2017-11-29T14:19:53.109Z,76.42
2017-11-29T14:20:33.679Z,76.23
2017-11-29T14:21:14.255Z,76.14
2017-11-29T14:21:54.854Z,76.52
2017-11-29T14:22:35.412Z,76.14
2017-11-29T14:23:15.975Z,76.8
2017-11-29T14:23:56.529Z,76.42
2017-11-29T14:24:37.963Z,76.52
2017-11-29T14:25:18.543Z,76.32
2017-11-29T14:25:59.098Z,76.23
2017-11-29T14:26:39.713Z,75.95
2017-11-29T14:27:20.290Z,76.32
2017-11-29T14:28:00.876Z,76.61
2017-11-29T14:28:41.489Z,76.42
2017-11-29T14:29:22.063Z,76.52
2017-11-29T14:30:02.633Z,76.32
2017-11-29T14:30:43.197Z,76.42
2017-11-29T14:31:23.797Z,76.9
2017-11-29T14:32:04.352Z,76.71
2017-11-29T14:32:44.910Z,76.8
2017-11-29T14:33:25.480Z,76.99
2017-11-29T14:34:06.056Z,76.61
2017-11-29T14:34:46.652Z,76.71
2017-11-29T14:35:27.260Z,77.18
2017-11-29T14:36:07.830Z,76.9
2017-11-29T14:36:48.416Z,77.18
2017-11-29T14:37:28.971Z,76.99
2017-11-29T14:38:09.536Z,76.99
2017-11-29T14:38:50.113Z,77.09
2017-11-29T14:39:30.692Z,77.37
2017-11-29T14:40:11.274Z,77.28
2017-11-29T14:40:51.891Z,77.84
2017-11-29T14:41:32.471Z,77.75
2017-11-29T14:42:13.062Z,77.75
2017-11-29T14:42:53.630Z,77.28
2017-11-29T14:43:34.205Z,77.37
2017-11-29T14:44:14.805Z,77.37
2017-11-29T14:44:55.391Z,77.28
2017-11-29T14:45:35.974Z,77.18
2017-11-29T14:46:16.570Z,77.37
2017-11-29T14:46:57.152Z,77.75
2017-11-29T14:47:37.722Z,77.75
2017-11-29T14:48:18.302Z,77.37
2017-11-29T14:48:58.855Z,77.09
2017-11-29T14:49:39.427Z,77.18
2017-11-29T14:50:19.997Z,77.56
2017-11-29T14:51:00.571Z,77.09
2017-11-29T14:51:41.124Z,77.18
2017-11-29T14:52:21.692Z,77.52
2017-11-29T14:53:02.259Z,77.84
2017-11-29T14:53:42.841Z,77.81
2017-11-29T14:54:23.429Z,77.62
2017-11-29T14:55:04.013Z,77.75
2017-11-29T14:55:44.585Z,77.66
2017-11-29T14:56:25.174Z,77.66
2017-11-29T14:57:05.784Z,77.56
2017-11-29T14:57:46.379Z,77.84
2017-11-29T14:58:26.974Z,77.71
2017-11-29T14:59:07.536Z,77.66
2017-11-29T14:59:48.114Z,77.94
2017-11-29T15:00:28.682Z,77.75
2017-11-29T15:01:09.239Z,77.43
2017-11-29T15:01:49.811Z,77.84
2017-11-29T15:02:30.403Z,78
2017-11-29T15:03:10.961Z,77.84
2017-11-29T15:03:51.535Z,78.23
2017-11-29T15:04:32.102Z,77.62
2017-11-29T15:05:12.679Z,77.81
2017-11-29T15:05:53.248Z,77.9
2017-11-29T15:06:33.877Z,77.9
2017-11-29T15:07:14.455Z,77.81
2017-11-29T15:07:55.099Z,77.81
2017-11-29T15:08:35.684Z,77.9
2017-11-29T15:09:16.261Z,77.81
2017-11-29T15:09:56.825Z,78.19
2017-11-29T15:10:37.451Z,77.9
2017-11-29T15:11:18.066Z,78.56
2017-11-29T15:11:58.593Z,78.51
2017-11-29T15:12:39.232Z,78.47
2017-11-29T15:13:19.810Z,78.38
2017-11-29T15:14:00.427Z,78.56
2017-11-29T15:14:40.988Z,78.56
2017-11-29T15:15:21.545Z,78.47
2017-11-29T15:16:02.109Z,78.56
2017-11-29T15:16:42.674Z,78.47
2017-11-29T15:17:23.337Z,78.56
2017-11-29T15:18:03.909Z,78.19
2017-11-29T15:18:44.472Z,78.28
2017-11-29T15:19:25.048Z,78.47
2017-11-29T15:20:05.709Z,78.66
2017-11-29T15:20:46.305Z,78.66
2017-11-29T15:21:26.913Z,78.66
2017-11-29T15:22:07.467Z,78.19
2017-11-29T15:22:48.031Z,78.19
2017-11-29T15:23:28.588Z,78.47
2017-11-29T15:24:09.159Z,78.19
2017-11-29T15:24:49.720Z,78.47
2017-11-29T15:25:30.292Z,78.47
2017-11-29T15:26:10.945Z,78.47
2017-11-29T15:26:51.532Z,78.47
2017-11-29T15:27:32.124Z,78.19
2017-11-29T15:28:12.698Z,78.19
2017-11-29T15:28:53.279Z,78.38
2017-11-29T15:29:33.880Z,78.38
2017-11-29T15:30:14.437Z,78.47
2017-11-29T15:30:55.070Z,78.47
2017-11-29T15:31:35.712Z,78.66
2017-11-29T15:32:16.293Z,78.66
2017-11-29T15:32:56.940Z,78.75
2017-11-29T15:33:37.566Z,79.04
2017-11-29T15:34:18.136Z,78.95
2017-11-29T15:34:58.705Z,78.95
2017-11-29T15:35:39.273Z,78.56
2017-11-29T15:36:19.838Z,78.66
2017-11-29T15:37:00.416Z,78.85
2017-11-29T15:37:40.999Z,78.95
2017-11-29T15:38:21.577Z,78.95
2017-11-29T15:39:02.142Z,78.75
2017-11-29T15:39:42.719Z,79.14
2017-11-29T15:40:23.269Z,78.95
2017-11-29T15:41:03.841Z,78.95
2017-11-29T15:41:44.469Z,78.75
2017-11-29T15:42:25.040Z,78.75
2017-11-29T15:43:05.601Z,78.75
2017-11-29T15:43:46.330Z,78.95
2017-11-29T15:44:27.424Z,78.85
2017-11-29T15:45:08.425Z,78.95
2017-11-29T15:45:49.003Z,78.95
2017-11-29T15:46:29.581Z,78.95
2017-11-29T15:47:10.662Z,78.95
2017-11-29T15:47:51.905Z,78.95
2017-11-29T15:48:32.816Z,78.85
2017-11-29T15:49:13.432Z,79.14
2017-11-29T15:49:54.017Z,78.95
2017-11-29T15:50:34.606Z,79.14
2017-11-29T15:51:15.173Z,78.95
2017-11-29T15:51:55.744Z,78.75
2017-11-29T15:52:36.317Z,78.75
2017-11-29T15:53:16.913Z,78.56
2017-11-29T15:53:57.471Z,78.85
2017-11-29T15:54:38.040Z,78.95
2017-11-29T15:55:18.610Z,78.95
2017-11-29T15:55:59.208Z,78.95
2017-11-29T15:56:39.771Z,78.66
2017-11-29T15:57:20.343Z,78.95
2017-11-29T15:58:00.910Z,78.56
2017-11-29T15:58:41.463Z,78.85
2017-11-29T15:59:22.061Z,78.85
2017-11-29T16:00:02.628Z,78.66
2017-11-29T16:00:43.257Z,78.56
2017-11-29T16:01:23.832Z,78.66
2017-11-29T16:02:04.405Z,78.95
2017-11-29T16:02:44.983Z,78.66
2017-11-29T16:03:25.550Z,78.85
2017-11-29T16:04:06.120Z,78.85
2017-11-29T16:04:46.692Z,78.85
2017-11-29T16:05:27.289Z,79.04
2017-11-29T16:06:07.856Z,78.95
2017-11-29T16:06:48.419Z,78.95
2017-11-29T16:07:28.993Z,78.56
2017-11-29T16:08:09.652Z,78.66
2017-11-29T16:08:50.237Z,78.85
2017-11-29T16:09:30.817Z,79.14
2017-11-29T16:10:11.375Z,78.66
2017-11-29T16:10:51.938Z,78.85
2017-11-29T16:11:32.527Z,78.85
2017-11-29T16:12:13.170Z,79.14
2017-11-29T16:12:53.754Z,79.14
2017-11-29T16:13:34.319Z,79.14
2017-11-29T16:14:14.915Z,79.33
2017-11-29T16:14:55.473Z,79.04
2017-11-29T16:15:36.029Z,79.14
2017-11-29T16:16:16.600Z,78.66
2017-11-29T16:16:57.174Z,78.95
2017-11-29T16:17:37.740Z,78.75
2017-11-29T16:18:18.312Z,78.75
2017-11-29T16:18:58.882Z,78.66
2017-11-29T16:19:39.452Z,78.95
2017-11-29T16:20:20.013Z,78.95
2017-11-29T16:21:00.571Z,78.95
2017-11-29T16:21:41.139Z,78.66
2017-11-29T16:22:21.701Z,78.66
2017-11-29T16:23:02.283Z,78.75
2017-11-29T16:23:42.852Z,79.14
2017-11-29T16:24:23.427Z,79.23
2017-11-29T16:25:03.984Z,79.14
2017-11-29T16:25:44.541Z,79.04
2017-11-29T16:26:25.104Z,78.95
2017-11-29T16:27:05.679Z,79.33
2017-11-29T16:27:46.253Z,78.85
2017-11-29T16:28:26.813Z,79.8
2017-11-29T16:29:07.389Z,79.52
2017-11-29T16:29:47.950Z,79.52
2017-11-29T16:30:31.827Z,78.95
2017-11-29T16:31:12.409Z,78.85
2017-11-29T16:31:52.986Z,78.75
2017-11-29T16:32:33.560Z,79.52
2017-11-29T16:33:14.115Z,79.8
2017-11-29T16:33:54.685Z,79.52
2017-11-29T16:34:35.253Z,79.61
2017-11-29T16:35:15.830Z,78.75
2017-11-29T16:35:56.421Z,78.95
2017-11-29T16:36:36.985Z,79.61
2017-11-29T16:37:17.548Z,79.42
2017-11-29T16:37:58.107Z,79.61
2017-11-29T16:38:38.697Z,79.61
2017-11-29T16:39:19.253Z,79.61
2017-11-29T16:39:59.998Z,79.52
2017-11-29T16:40:40.556Z,79.42
2017-11-29T16:41:21.128Z,79.33
2017-11-29T16:42:01.692Z,79.52
2017-11-29T16:42:42.267Z,79.52
2017-11-29T16:43:22.853Z,79.8
2017-11-29T16:44:03.428Z,79.99
2017-11-29T16:44:43.999Z,79.99